sensor_id;sensor_type;location;lat;lon;timestamp;P1;durP1;ratioP1;P2;durP2;ratioP2
76423;SDS011;65257;52.104;4.268;2023-12-07T00:01:28;10.55;;;5.82;;
76423;SDS011;65257;52.104;4.268;2023-12-07T00:03:53;13.30;;;6.25;;
76423;SDS011;65257;52.104;4.268;2023-12-07T00:06:18;11.68;;;6.13;;
76423;SDS011;65257;52.104;4.268;2023-12-07T00:08:44;13.88;;;6.40;;
76423;SDS011;65257;52.104;4.268;2023-12-07T00:11:09;13.55;;;7.15;;
76423;SDS011;65257;52.104;4.268;2023-12-07T00:13:34;13.35;;;7.35;;
76423;SDS011;65257;52.104;4.268;2023-12-07T00:16:00;10.18;;;6.13;;
76423;SDS011;65257;52.104;4.268;2023-12-07T00:18:25;14.45;;;7.43;;
76423;SDS011;65257;52.104;4.268;2023-12-07T00:20:50;15.13;;;6.30;;
76423;SDS011;65257;52.104;4.268;2023-12-07T00:23:16;11.50;;;6.03;;
76423;SDS011;65257;52.104;4.268;2023-12-07T00:25:41;13.90;;;5.82;;
76423;SDS011;65257;52.104;4.268;2023-12-07T00:28:06;8.38;;;5.43;;
76423;SDS011;65257;52.104;4.268;2023-12-07T00:30:32;7.30;;;4.45;;
76423;SDS011;65257;52.104;4.268;2023-12-07T00:32:58;8.57;;;5.07;;
76423;SDS011;65257;52.104;4.268;2023-12-07T00:35:24;6.70;;;4.20;;
76423;SDS011;65257;52.104;4.268;2023-12-07T00:37:49;10.05;;;5.45;;
76423;SDS011;65257;52.104;4.268;2023-12-07T00:40:15;10.50;;;5.50;;
76423;SDS011;65257;52.104;4.268;2023-12-07T00:42:40;6.88;;;3.80;;
76423;SDS011;65257;52.104;4.268;2023-12-07T00:45:06;12.10;;;5.38;;
76423;SDS011;65257;52.104;4.268;2023-12-07T00:47:31;10.50;;;5.03;;
76423;SDS011;65257;52.104;4.268;2023-12-07T00:49:57;10.70;;;5.70;;
76423;SDS011;65257;52.104;4.268;2023-12-07T00:52:22;10.60;;;5.53;;
76423;SDS011;65257;52.104;4.268;2023-12-07T00:54:48;10.10;;;5.47;;
76423;SDS011;65257;52.104;4.268;2023-12-07T00:57:13;6.07;;;3.38;;
76423;SDS011;65257;52.104;4.268;2023-12-07T00:59:38;10.32;;;5.80;;
76423;SDS011;65257;52.104;4.268;2023-12-07T01:02:04;9.05;;;5.50;;
76423;SDS011;65257;52.104;4.268;2023-12-07T01:04:30;10.95;;;5.53;;
76423;SDS011;65257;52.104;4.268;2023-12-07T01:06:56;8.45;;;4.57;;
76423;SDS011;65257;52.104;4.268;2023-12-07T01:09:22;10.52;;;6.13;;
76423;SDS011;65257;52.104;4.268;2023-12-07T01:11:48;9.65;;;5.53;;
76423;SDS011;65257;52.104;4.268;2023-12-07T01:14:13;13.52;;;6.85;;
76423;SDS011;65257;52.104;4.268;2023-12-07T01:16:39;12.75;;;7.82;;
76423;SDS011;65257;52.104;4.268;2023-12-07T01:19:04;8.65;;;5.00;;
76423;SDS011;65257;52.104;4.268;2023-12-07T01:21:32;11.70;;;6.53;;
76423;SDS011;65257;52.104;4.268;2023-12-07T01:23:57;8.10;;;5.07;;
76423;SDS011;65257;52.104;4.268;2023-12-07T01:26:24;11.93;;;7.40;;
76423;SDS011;65257;52.104;4.268;2023-12-07T01:28:49;12.13;;;6.93;;
76423;SDS011;65257;52.104;4.268;2023-12-07T01:31:14;14.93;;;6.93;;
76423;SDS011;65257;52.104;4.268;2023-12-07T01:33:40;11.43;;;7.35;;
76423;SDS011;65257;52.104;4.268;2023-12-07T01:36:05;22.35;;;9.77;;
76423;SDS011;65257;52.104;4.268;2023-12-07T01:38:31;20.05;;;9.68;;
76423;SDS011;65257;52.104;4.268;2023-12-07T01:40:56;19.55;;;9.75;;
76423;SDS011;65257;52.104;4.268;2023-12-07T01:43:22;18.23;;;10.55;;
76423;SDS011;65257;52.104;4.268;2023-12-07T01:45:48;13.70;;;5.80;;
76423;SDS011;65257;52.104;4.268;2023-12-07T01:48:16;27.17;;;10.68;;
76423;SDS011;65257;52.104;4.268;2023-12-07T01:50:41;25.17;;;10.27;;
76423;SDS011;65257;52.104;4.268;2023-12-07T01:53:07;18.77;;;10.10;;
76423;SDS011;65257;52.104;4.268;2023-12-07T01:55:33;20.63;;;10.60;;
76423;SDS011;65257;52.104;4.268;2023-12-07T01:57:59;12.35;;;7.10;;
76423;SDS011;65257;52.104;4.268;2023-12-07T02:00:25;13.77;;;8.07;;
76423;SDS011;65257;52.104;4.268;2023-12-07T02:02:52;20.67;;;10.63;;
76423;SDS011;65257;52.104;4.268;2023-12-07T02:05:17;16.35;;;9.43;;
76423;SDS011;65257;52.104;4.268;2023-12-07T02:07:43;16.92;;;9.48;;
76423;SDS011;65257;52.104;4.268;2023-12-07T02:10:10;19.65;;;10.23;;
76423;SDS011;65257;52.104;4.268;2023-12-07T02:12:35;22.77;;;10.00;;
76423;SDS011;65257;52.104;4.268;2023-12-07T02:15:02;15.45;;;8.48;;
76423;SDS011;65257;52.104;4.268;2023-12-07T02:17:35;18.42;;;9.70;;
76423;SDS011;65257;52.104;4.268;2023-12-07T02:22:51;19.10;;;9.77;;
76423;SDS011;65257;52.104;4.268;2023-12-07T02:25:21;15.88;;;8.30;;
76423;SDS011;65257;52.104;4.268;2023-12-07T02:27:51;19.85;;;9.85;;
76423;SDS011;65257;52.104;4.268;2023-12-07T02:30:16;15.15;;;9.43;;
76423;SDS011;65257;52.104;4.268;2023-12-07T02:32:43;14.27;;;6.78;;
76423;SDS011;65257;52.104;4.268;2023-12-07T02:35:11;17.88;;;8.70;;
76423;SDS011;65257;52.104;4.268;2023-12-07T02:37:45;17.63;;;9.77;;
76423;SDS011;65257;52.104;4.268;2023-12-07T02:40:13;13.20;;;7.88;;
76423;SDS011;65257;52.104;4.268;2023-12-07T02:42:42;17.45;;;8.20;;
76423;SDS011;65257;52.104;4.268;2023-12-07T02:45:08;18.55;;;8.73;;
76423;SDS011;65257;52.104;4.268;2023-12-07T02:47:35;20.88;;;10.35;;
76423;SDS011;65257;52.104;4.268;2023-12-07T02:50:01;15.65;;;7.05;;
76423;SDS011;65257;52.104;4.268;2023-12-07T02:52:27;16.33;;;8.82;;
76423;SDS011;65257;52.104;4.268;2023-12-07T02:54:53;16.55;;;9.00;;
76423;SDS011;65257;52.104;4.268;2023-12-07T02:57:19;16.10;;;9.10;;
76423;SDS011;65257;52.104;4.268;2023-12-07T02:59:44;13.68;;;8.82;;
76423;SDS011;65257;52.104;4.268;2023-12-07T03:02:10;10.48;;;6.53;;
76423;SDS011;65257;52.104;4.268;2023-12-07T03:04:35;15.93;;;9.23;;
76423;SDS011;65257;52.104;4.268;2023-12-07T03:07:00;11.32;;;6.32;;
76423;SDS011;65257;52.104;4.268;2023-12-07T03:09:26;15.00;;;8.35;;
76423;SDS011;65257;52.104;4.268;2023-12-07T03:11:51;13.13;;;6.60;;
76423;SDS011;65257;52.104;4.268;2023-12-07T03:14:17;11.70;;;7.95;;
76423;SDS011;65257;52.104;4.268;2023-12-07T03:16:44;16.00;;;8.70;;
76423;SDS011;65257;52.104;4.268;2023-12-07T03:19:09;21.75;;;8.98;;
76423;SDS011;65257;52.104;4.268;2023-12-07T03:21:38;17.83;;;7.30;;
76423;SDS011;65257;52.104;4.268;2023-12-07T03:24:04;11.80;;;6.85;;
76423;SDS011;65257;52.104;4.268;2023-12-07T03:26:31;11.35;;;5.25;;
76423;SDS011;65257;52.104;4.268;2023-12-07T03:28:56;12.77;;;7.70;;
76423;SDS011;65257;52.104;4.268;2023-12-07T03:31:22;10.18;;;5.68;;
76423;SDS011;65257;52.104;4.268;2023-12-07T03:33:47;21.40;;;10.05;;
76423;SDS011;65257;52.104;4.268;2023-12-07T03:36:13;15.00;;;9.13;;
76423;SDS011;65257;52.104;4.268;2023-12-07T03:38:38;11.70;;;7.30;;
76423;SDS011;65257;52.104;4.268;2023-12-07T03:41:04;16.08;;;9.50;;
76423;SDS011;65257;52.104;4.268;2023-12-07T03:43:29;13.38;;;7.28;;
76423;SDS011;65257;52.104;4.268;2023-12-07T03:45:54;17.60;;;8.65;;
76423;SDS011;65257;52.104;4.268;2023-12-07T03:48:20;18.98;;;10.13;;
76423;SDS011;65257;52.104;4.268;2023-12-07T03:50:45;14.07;;;7.28;;
76423;SDS011;65257;52.104;4.268;2023-12-07T03:53:11;13.02;;;7.97;;
76423;SDS011;65257;52.104;4.268;2023-12-07T03:55:37;16.80;;;8.93;;
76423;SDS011;65257;52.104;4.268;2023-12-07T03:58:03;15.70;;;8.73;;
76423;SDS011;65257;52.104;4.268;2023-12-07T04:00:30;14.07;;;8.30;;
76423;SDS011;65257;52.104;4.268;2023-12-07T04:02:56;20.52;;;10.55;;
76423;SDS011;65257;52.104;4.268;2023-12-07T04:05:22;11.30;;;6.90;;
76423;SDS011;65257;52.104;4.268;2023-12-07T04:07:47;18.08;;;8.80;;
76423;SDS011;65257;52.104;4.268;2023-12-07T04:10:12;13.98;;;6.78;;
76423;SDS011;65257;52.104;4.268;2023-12-07T04:12:38;5.85;;;4.05;;
76423;SDS011;65257;52.104;4.268;2023-12-07T04:15:03;19.10;;;9.65;;
76423;SDS011;65257;52.104;4.268;2023-12-07T04:17:29;18.75;;;10.15;;
76423;SDS011;65257;52.104;4.268;2023-12-07T04:19:55;18.58;;;8.48;;
76423;SDS011;65257;52.104;4.268;2023-12-07T04:22:20;10.18;;;6.03;;
76423;SDS011;65257;52.104;4.268;2023-12-07T04:24:45;18.50;;;9.00;;
76423;SDS011;65257;52.104;4.268;2023-12-07T04:27:11;15.63;;;7.50;;
76423;SDS011;65257;52.104;4.268;2023-12-07T04:29:36;16.90;;;10.82;;
76423;SDS011;65257;52.104;4.268;2023-12-07T04:32:02;15.20;;;9.45;;
76423;SDS011;65257;52.104;4.268;2023-12-07T04:34:27;22.45;;;11.68;;
76423;SDS011;65257;52.104;4.268;2023-12-07T04:36:53;25.83;;;12.60;;
76423;SDS011;65257;52.104;4.268;2023-12-07T04:39:18;18.83;;;10.25;;
76423;SDS011;65257;52.104;4.268;2023-12-07T04:41:43;22.85;;;14.13;;
76423;SDS011;65257;52.104;4.268;2023-12-07T04:44:09;25.77;;;15.38;;
76423;SDS011;65257;52.104;4.268;2023-12-07T04:46:34;23.55;;;10.18;;
76423;SDS011;65257;52.104;4.268;2023-12-07T04:49:00;27.75;;;15.93;;
76423;SDS011;65257;52.104;4.268;2023-12-07T04:51:26;16.08;;;8.18;;
76423;SDS011;65257;52.104;4.268;2023-12-07T04:53:51;15.55;;;7.60;;
76423;SDS011;65257;52.104;4.268;2023-12-07T04:56:17;27.08;;;14.32;;
76423;SDS011;65257;52.104;4.268;2023-12-07T04:58:42;28.95;;;14.57;;
76423;SDS011;65257;52.104;4.268;2023-12-07T05:01:10;24.63;;;11.13;;
76423;SDS011;65257;52.104;4.268;2023-12-07T05:03:35;36.60;;;15.63;;
76423;SDS011;65257;52.104;4.268;2023-12-07T05:06:01;25.48;;;12.35;;
76423;SDS011;65257;52.104;4.268;2023-12-07T05:08:26;28.20;;;14.75;;
76423;SDS011;65257;52.104;4.268;2023-12-07T05:10:52;23.38;;;11.57;;
76423;SDS011;65257;52.104;4.268;2023-12-07T05:13:18;24.38;;;11.25;;
76423;SDS011;65257;52.104;4.268;2023-12-07T05:15:43;32.78;;;14.93;;
76423;SDS011;65257;52.104;4.268;2023-12-07T05:18:08;22.65;;;9.27;;
76423;SDS011;65257;52.104;4.268;2023-12-07T05:20:36;53.22;;;17.83;;
76423;SDS011;65257;52.104;4.268;2023-12-07T05:23:04;57.47;;;15.10;;
76423;SDS011;65257;52.104;4.268;2023-12-07T05:25:29;71.13;;;21.17;;
76423;SDS011;65257;52.104;4.268;2023-12-07T05:27:54;23.75;;;11.43;;
76423;SDS011;65257;52.104;4.268;2023-12-07T05:30:20;43.42;;;14.90;;
76423;SDS011;65257;52.104;4.268;2023-12-07T05:32:46;57.40;;;21.55;;
76423;SDS011;65257;52.104;4.268;2023-12-07T05:35:11;44.63;;;15.52;;
76423;SDS011;65257;52.104;4.268;2023-12-07T05:37:37;40.58;;;13.45;;
76423;SDS011;65257;52.104;4.268;2023-12-07T05:40:03;39.75;;;13.45;;
76423;SDS011;65257;52.104;4.268;2023-12-07T05:42:29;48.92;;;14.80;;
76423;SDS011;65257;52.104;4.268;2023-12-07T05:44:55;44.15;;;12.77;;
76423;SDS011;65257;52.104;4.268;2023-12-07T05:47:20;65.20;;;16.50;;
76423;SDS011;65257;52.104;4.268;2023-12-07T05:49:45;20.33;;;9.15;;
76423;SDS011;65257;52.104;4.268;2023-12-07T05:52:11;38.30;;;12.20;;
76423;SDS011;65257;52.104;4.268;2023-12-07T05:54:36;24.33;;;8.07;;
76423;SDS011;65257;52.104;4.268;2023-12-07T05:57:01;30.27;;;12.13;;
76423;SDS011;65257;52.104;4.268;2023-12-07T05:59:27;25.55;;;7.80;;
76423;SDS011;65257;52.104;4.268;2023-12-07T06:01:52;20.98;;;8.70;;
76423;SDS011;65257;52.104;4.268;2023-12-07T06:04:18;26.27;;;9.65;;
76423;SDS011;65257;52.104;4.268;2023-12-07T06:06:44;47.70;;;14.52;;
76423;SDS011;65257;52.104;4.268;2023-12-07T06:09:10;33.25;;;10.02;;
76423;SDS011;65257;52.104;4.268;2023-12-07T06:11:36;15.38;;;7.55;;
76423;SDS011;65257;52.104;4.268;2023-12-07T06:14:01;25.65;;;10.43;;
76423;SDS011;65257;52.104;4.268;2023-12-07T06:16:27;15.60;;;7.60;;
76423;SDS011;65257;52.104;4.268;2023-12-07T06:18:53;33.35;;;11.65;;
76423;SDS011;65257;52.104;4.268;2023-12-07T06:21:18;23.48;;;9.38;;
76423;SDS011;65257;52.104;4.268;2023-12-07T06:23:44;39.20;;;13.43;;
76423;SDS011;65257;52.104;4.268;2023-12-07T06:26:11;36.83;;;11.85;;
76423;SDS011;65257;52.104;4.268;2023-12-07T06:28:37;41.22;;;14.30;;
76423;SDS011;65257;52.104;4.268;2023-12-07T06:31:06;40.55;;;13.60;;
76423;SDS011;65257;52.104;4.268;2023-12-07T06:33:34;33.38;;;11.15;;
76423;SDS011;65257;52.104;4.268;2023-12-07T06:36:00;25.52;;;10.07;;
76423;SDS011;65257;52.104;4.268;2023-12-07T06:38:28;27.88;;;12.15;;
76423;SDS011;65257;52.104;4.268;2023-12-07T06:40:53;30.95;;;13.63;;
76423;SDS011;65257;52.104;4.268;2023-12-07T06:43:19;31.98;;;12.98;;
76423;SDS011;65257;52.104;4.268;2023-12-07T06:45:44;27.70;;;11.20;;
76423;SDS011;65257;52.104;4.268;2023-12-07T06:48:10;35.65;;;15.63;;
76423;SDS011;65257;52.104;4.268;2023-12-07T06:50:36;22.05;;;12.88;;
76423;SDS011;65257;52.104;4.268;2023-12-07T06:53:02;20.10;;;8.80;;
76423;SDS011;65257;52.104;4.268;2023-12-07T06:55:27;25.65;;;10.18;;
76423;SDS011;65257;52.104;4.268;2023-12-07T06:57:53;33.17;;;12.98;;
76423;SDS011;65257;52.104;4.268;2023-12-07T07:00:18;32.75;;;11.85;;
76423;SDS011;65257;52.104;4.268;2023-12-07T07:02:45;21.00;;;10.30;;
76423;SDS011;65257;52.104;4.268;2023-12-07T07:05:10;59.63;;;14.63;;
76423;SDS011;65257;52.104;4.268;2023-12-07T07:07:36;32.97;;;13.65;;
76423;SDS011;65257;52.104;4.268;2023-12-07T07:10:02;33.15;;;13.63;;
76423;SDS011;65257;52.104;4.268;2023-12-07T07:12:28;14.50;;;8.02;;
76423;SDS011;65257;52.104;4.268;2023-12-07T07:14:54;21.00;;;10.27;;
76423;SDS011;65257;52.104;4.268;2023-12-07T07:17:20;29.20;;;11.90;;
76423;SDS011;65257;52.104;4.268;2023-12-07T07:19:45;14.82;;;7.30;;
76423;SDS011;65257;52.104;4.268;2023-12-07T07:22:11;20.33;;;9.73;;
76423;SDS011;65257;52.104;4.268;2023-12-07T07:24:36;21.63;;;9.27;;
76423;SDS011;65257;52.104;4.268;2023-12-07T07:27:02;21.27;;;10.90;;
76423;SDS011;65257;52.104;4.268;2023-12-07T07:29:27;19.65;;;8.05;;
76423;SDS011;65257;52.104;4.268;2023-12-07T07:31:53;14.13;;;7.32;;
76423;SDS011;65257;52.104;4.268;2023-12-07T07:34:18;22.60;;;8.85;;
76423;SDS011;65257;52.104;4.268;2023-12-07T07:36:44;18.40;;;9.02;;
76423;SDS011;65257;52.104;4.268;2023-12-07T07:39:09;18.75;;;8.45;;
76423;SDS011;65257;52.104;4.268;2023-12-07T07:41:36;19.20;;;7.22;;
76423;SDS011;65257;52.104;4.268;2023-12-07T07:44:02;22.33;;;8.77;;
76423;SDS011;65257;52.104;4.268;2023-12-07T07:46:27;31.75;;;10.27;;
76423;SDS011;65257;52.104;4.268;2023-12-07T07:48:53;30.88;;;11.20;;
76423;SDS011;65257;52.104;4.268;2023-12-07T07:51:18;20.67;;;9.07;;
76423;SDS011;65257;52.104;4.268;2023-12-07T07:53:44;20.70;;;9.05;;
76423;SDS011;65257;52.104;4.268;2023-12-07T07:56:09;23.38;;;7.68;;
76423;SDS011;65257;52.104;4.268;2023-12-07T07:58:35;28.65;;;9.70;;
76423;SDS011;65257;52.104;4.268;2023-12-07T08:01:00;23.05;;;7.05;;
76423;SDS011;65257;52.104;4.268;2023-12-07T08:03:26;25.25;;;9.25;;
76423;SDS011;65257;52.104;4.268;2023-12-07T08:05:51;39.20;;;13.57;;
76423;SDS011;65257;52.104;4.268;2023-12-07T08:08:16;26.60;;;11.10;;
76423;SDS011;65257;52.104;4.268;2023-12-07T08:10:42;42.42;;;13.73;;
76423;SDS011;65257;52.104;4.268;2023-12-07T08:13:07;13.88;;;5.72;;
76423;SDS011;65257;52.104;4.268;2023-12-07T08:15:33;19.17;;;8.88;;
76423;SDS011;65257;52.104;4.268;2023-12-07T08:17:59;31.30;;;9.98;;
76423;SDS011;65257;52.104;4.268;2023-12-07T08:20:24;19.30;;;8.57;;
76423;SDS011;65257;52.104;4.268;2023-12-07T08:22:50;25.05;;;9.20;;
76423;SDS011;65257;52.104;4.268;2023-12-07T08:25:15;27.77;;;10.13;;
76423;SDS011;65257;52.104;4.268;2023-12-07T08:27:42;17.75;;;7.80;;
76423;SDS011;65257;52.104;4.268;2023-12-07T08:30:10;22.20;;;9.90;;
76423;SDS011;65257;52.104;4.268;2023-12-07T08:32:36;21.08;;;9.50;;
76423;SDS011;65257;52.104;4.268;2023-12-07T08:35:02;29.27;;;13.13;;
76423;SDS011;65257;52.104;4.268;2023-12-07T08:37:28;21.30;;;10.15;;
76423;SDS011;65257;52.104;4.268;2023-12-07T08:39:53;23.00;;;9.23;;
76423;SDS011;65257;52.104;4.268;2023-12-07T08:42:19;31.85;;;8.48;;
76423;SDS011;65257;52.104;4.268;2023-12-07T08:44:44;27.65;;;11.00;;
76423;SDS011;65257;52.104;4.268;2023-12-07T08:47:10;25.55;;;10.45;;
76423;SDS011;65257;52.104;4.268;2023-12-07T08:49:35;15.98;;;6.75;;
76423;SDS011;65257;52.104;4.268;2023-12-07T08:52:01;33.28;;;13.60;;
76423;SDS011;65257;52.104;4.268;2023-12-07T08:54:27;34.92;;;13.50;;
76423;SDS011;65257;52.104;4.268;2023-12-07T08:56:52;33.22;;;13.20;;
76423;SDS011;65257;52.104;4.268;2023-12-07T08:59:18;28.33;;;11.23;;
76423;SDS011;65257;52.104;4.268;2023-12-07T09:01:43;32.10;;;13.10;;
76423;SDS011;65257;52.104;4.268;2023-12-07T09:04:09;32.58;;;13.52;;
76423;SDS011;65257;52.104;4.268;2023-12-07T09:06:35;38.80;;;14.32;;
76423;SDS011;65257;52.104;4.268;2023-12-07T09:09:01;20.55;;;10.93;;
76423;SDS011;65257;52.104;4.268;2023-12-07T09:11:29;24.83;;;9.50;;
76423;SDS011;65257;52.104;4.268;2023-12-07T09:13:55;28.23;;;10.90;;
76423;SDS011;65257;52.104;4.268;2023-12-07T09:16:20;26.65;;;10.65;;
76423;SDS011;65257;52.104;4.268;2023-12-07T09:18:46;27.02;;;11.20;;
76423;SDS011;65257;52.104;4.268;2023-12-07T09:21:12;26.80;;;11.40;;
76423;SDS011;65257;52.104;4.268;2023-12-07T09:23:37;25.85;;;12.20;;
76423;SDS011;65257;52.104;4.268;2023-12-07T09:26:02;25.85;;;10.75;;
76423;SDS011;65257;52.104;4.268;2023-12-07T09:28:28;36.50;;;13.20;;
76423;SDS011;65257;52.104;4.268;2023-12-07T09:30:54;21.42;;;8.88;;
76423;SDS011;65257;52.104;4.268;2023-12-07T09:33:19;24.88;;;9.88;;
76423;SDS011;65257;52.104;4.268;2023-12-07T09:35:45;29.55;;;12.05;;
76423;SDS011;65257;52.104;4.268;2023-12-07T09:38:10;29.33;;;11.85;;
76423;SDS011;65257;52.104;4.268;2023-12-07T09:40:36;25.20;;;10.68;;
76423;SDS011;65257;52.104;4.268;2023-12-07T09:43:01;36.58;;;14.73;;
76423;SDS011;65257;52.104;4.268;2023-12-07T09:45:27;36.97;;;13.23;;
76423;SDS011;65257;52.104;4.268;2023-12-07T09:47:53;36.08;;;13.02;;
76423;SDS011;65257;52.104;4.268;2023-12-07T09:50:20;42.55;;;15.25;;
76423;SDS011;65257;52.104;4.268;2023-12-07T09:52:50;30.75;;;15.15;;
76423;SDS011;65257;52.104;4.268;2023-12-07T09:55:17;26.52;;;11.68;;
76423;SDS011;65257;52.104;4.268;2023-12-07T09:57:43;38.03;;;16.08;;
76423;SDS011;65257;52.104;4.268;2023-12-07T10:00:12;32.88;;;14.45;;
76423;SDS011;65257;52.104;4.268;2023-12-07T10:02:39;35.22;;;13.82;;
76423;SDS011;65257;52.104;4.268;2023-12-07T10:05:09;22.45;;;9.38;;
76423;SDS011;65257;52.104;4.268;2023-12-07T10:07:39;37.10;;;15.52;;
76423;SDS011;65257;52.104;4.268;2023-12-07T10:10:05;26.95;;;12.55;;
76423;SDS011;65257;52.104;4.268;2023-12-07T10:12:32;29.08;;;12.80;;
76423;SDS011;65257;52.104;4.268;2023-12-07T10:14:59;30.20;;;13.40;;
76423;SDS011;65257;52.104;4.268;2023-12-07T10:17:50;32.90;;;17.92;;
76423;SDS011;65257;52.104;4.268;2023-12-07T10:20:15;30.02;;;11.75;;
76423;SDS011;65257;52.104;4.268;2023-12-07T10:22:42;31.90;;;15.70;;
76423;SDS011;65257;52.104;4.268;2023-12-07T10:25:07;32.65;;;16.40;;
76423;SDS011;65257;52.104;4.268;2023-12-07T10:27:35;35.67;;;13.15;;
76423;SDS011;65257;52.104;4.268;2023-12-07T10:30:00;28.20;;;13.20;;
76423;SDS011;65257;52.104;4.268;2023-12-07T10:32:26;24.75;;;12.65;;
76423;SDS011;65257;52.104;4.268;2023-12-07T10:34:52;30.48;;;12.13;;
76423;SDS011;65257;52.104;4.268;2023-12-07T10:37:18;24.08;;;14.13;;
76423;SDS011;65257;52.104;4.268;2023-12-07T10:39:43;28.60;;;13.20;;
76423;SDS011;65257;52.104;4.268;2023-12-07T10:42:09;31.25;;;15.93;;
76423;SDS011;65257;52.104;4.268;2023-12-07T10:44:38;41.33;;;17.27;;
76423;SDS011;65257;52.104;4.268;2023-12-07T10:47:07;35.63;;;14.45;;
76423;SDS011;65257;52.104;4.268;2023-12-07T10:49:35;28.50;;;13.10;;
76423;SDS011;65257;52.104;4.268;2023-12-07T10:52:07;28.67;;;15.35;;
76423;SDS011;65257;52.104;4.268;2023-12-07T10:54:58;29.23;;;15.50;;
76423;SDS011;65257;52.104;4.268;2023-12-07T10:57:31;34.80;;;16.08;;
76423;SDS011;65257;52.104;4.268;2023-12-07T10:59:59;31.45;;;15.35;;
76423;SDS011;65257;52.104;4.268;2023-12-07T11:02:25;22.70;;;13.10;;
76423;SDS011;65257;52.104;4.268;2023-12-07T11:04:53;27.45;;;12.15;;
76423;SDS011;65257;52.104;4.268;2023-12-07T11:07:22;24.42;;;13.20;;
76423;SDS011;65257;52.104;4.268;2023-12-07T11:10:03;18.13;;;8.55;;
76423;SDS011;65257;52.104;4.268;2023-12-07T11:12:42;24.67;;;13.10;;
76423;SDS011;65257;52.104;4.268;2023-12-07T11:15:15;22.00;;;11.98;;
76423;SDS011;65257;52.104;4.268;2023-12-07T11:17:52;21.70;;;12.25;;
76423;SDS011;65257;52.104;4.268;2023-12-07T11:20:20;20.77;;;10.77;;
76423;SDS011;65257;52.104;4.268;2023-12-07T11:22:47;24.83;;;12.77;;
76423;SDS011;65257;52.104;4.268;2023-12-07T11:25:14;16.88;;;10.32;;
76423;SDS011;65257;52.104;4.268;2023-12-07T11:27:40;21.92;;;13.25;;
76423;SDS011;65257;52.104;4.268;2023-12-07T11:30:06;22.88;;;14.40;;
76423;SDS011;65257;52.104;4.268;2023-12-07T11:32:32;26.25;;;11.98;;
76423;SDS011;65257;52.104;4.268;2023-12-07T11:35:04;23.48;;;12.63;;
76423;SDS011;65257;52.104;4.268;2023-12-07T11:37:59;26.23;;;14.45;;
76423;SDS011;65257;52.104;4.268;2023-12-07T11:40:37;17.92;;;13.23;;
76423;SDS011;65257;52.104;4.268;2023-12-07T11:43:05;21.70;;;11.88;;
76423;SDS011;65257;52.104;4.268;2023-12-07T11:45:37;20.05;;;11.65;;
76423;SDS011;65257;52.104;4.268;2023-12-07T11:48:13;25.42;;;13.68;;
76423;SDS011;65257;52.104;4.268;2023-12-07T11:50:58;18.83;;;12.32;;
76423;SDS011;65257;52.104;4.268;2023-12-07T11:53:24;16.98;;;11.10;;
76423;SDS011;65257;52.104;4.268;2023-12-07T11:55:54;18.10;;;11.07;;
76423;SDS011;65257;52.104;4.268;2023-12-07T11:58:21;16.45;;;11.27;;
76423;SDS011;65257;52.104;4.268;2023-12-07T12:00:47;19.33;;;11.68;;
76423;SDS011;65257;52.104;4.268;2023-12-07T12:03:13;14.85;;;9.85;;
76423;SDS011;65257;52.104;4.268;2023-12-07T12:05:39;25.77;;;15.02;;
76423;SDS011;65257;52.104;4.268;2023-12-07T12:08:06;20.48;;;11.93;;
76423;SDS011;65257;52.104;4.268;2023-12-07T12:10:32;20.75;;;11.77;;
76423;SDS011;65257;52.104;4.268;2023-12-07T12:13:00;17.55;;;11.27;;
76423;SDS011;65257;52.104;4.268;2023-12-07T12:15:27;13.65;;;8.43;;
76423;SDS011;65257;52.104;4.268;2023-12-07T12:17:55;15.50;;;9.68;;
76423;SDS011;65257;52.104;4.268;2023-12-07T12:20:21;18.70;;;10.18;;
76423;SDS011;65257;52.104;4.268;2023-12-07T12:22:46;19.70;;;10.40;;
76423;SDS011;65257;52.104;4.268;2023-12-07T12:25:11;19.38;;;9.05;;
76423;SDS011;65257;52.104;4.268;2023-12-07T12:27:37;17.98;;;11.90;;
76423;SDS011;65257;52.104;4.268;2023-12-07T12:30:03;17.55;;;9.82;;
76423;SDS011;65257;52.104;4.268;2023-12-07T12:32:45;20.52;;;13.40;;
76423;SDS011;65257;52.104;4.268;2023-12-07T12:35:11;16.30;;;9.30;;
76423;SDS011;65257;52.104;4.268;2023-12-07T12:37:41;14.20;;;8.25;;
76423;SDS011;65257;52.104;4.268;2023-12-07T12:40:07;15.80;;;9.60;;
76423;SDS011;65257;52.104;4.268;2023-12-07T12:42:33;18.10;;;10.77;;
76423;SDS011;65257;52.104;4.268;2023-12-07T12:45:02;15.98;;;7.95;;
76423;SDS011;65257;52.104;4.268;2023-12-07T12:47:33;22.08;;;13.68;;
76423;SDS011;65257;52.104;4.268;2023-12-07T12:50:00;20.50;;;9.98;;
76423;SDS011;65257;52.104;4.268;2023-12-07T12:52:29;12.85;;;7.20;;
76423;SDS011;65257;52.104;4.268;2023-12-07T12:54:55;18.90;;;12.32;;
76423;SDS011;65257;52.104;4.268;2023-12-07T12:57:22;20.50;;;12.52;;
76423;SDS011;65257;52.104;4.268;2023-12-07T12:59:48;18.95;;;11.48;;
76423;SDS011;65257;52.104;4.268;2023-12-07T13:02:15;19.30;;;12.05;;
76423;SDS011;65257;52.104;4.268;2023-12-07T13:04:40;20.52;;;13.20;;
76423;SDS011;65257;52.104;4.268;2023-12-07T13:07:05;17.77;;;10.57;;
76423;SDS011;65257;52.104;4.268;2023-12-07T13:09:31;19.85;;;11.88;;
76423;SDS011;65257;52.104;4.268;2023-12-07T13:11:57;22.92;;;12.45;;
76423;SDS011;65257;52.104;4.268;2023-12-07T13:14:23;22.50;;;12.13;;
76423;SDS011;65257;52.104;4.268;2023-12-07T13:16:49;17.27;;;10.40;;
76423;SDS011;65257;52.104;4.268;2023-12-07T13:19:14;13.93;;;8.82;;
76423;SDS011;65257;52.104;4.268;2023-12-07T13:21:40;21.65;;;12.82;;
76423;SDS011;65257;52.104;4.268;2023-12-07T13:24:06;22.58;;;12.73;;
76423;SDS011;65257;52.104;4.268;2023-12-07T13:26:32;12.65;;;6.65;;
76423;SDS011;65257;52.104;4.268;2023-12-07T13:28:58;22.80;;;12.82;;
76423;SDS011;65257;52.104;4.268;2023-12-07T13:31:24;18.55;;;10.63;;
76423;SDS011;65257;52.104;4.268;2023-12-07T13:33:50;14.18;;;7.60;;
76423;SDS011;65257;52.104;4.268;2023-12-07T13:36:15;27.00;;;18.00;;
76423;SDS011;65257;52.104;4.268;2023-12-07T13:38:43;18.20;;;10.40;;
76423;SDS011;65257;52.104;4.268;2023-12-07T13:41:09;18.65;;;10.90;;
76423;SDS011;65257;52.104;4.268;2023-12-07T13:43:34;22.90;;;13.05;;
76423;SDS011;65257;52.104;4.268;2023-12-07T13:46:00;21.08;;;10.70;;
76423;SDS011;65257;52.104;4.268;2023-12-07T13:48:25;24.77;;;14.25;;
76423;SDS011;65257;52.104;4.268;2023-12-07T13:50:51;25.67;;;14.80;;
76423;SDS011;65257;52.104;4.268;2023-12-07T13:53:17;27.20;;;17.55;;
76423;SDS011;65257;52.104;4.268;2023-12-07T13:55:44;23.10;;;10.13;;
76423;SDS011;65257;52.104;4.268;2023-12-07T13:58:10;25.45;;;16.80;;
76423;SDS011;65257;52.104;4.268;2023-12-07T14:00:36;20.20;;;10.15;;
76423;SDS011;65257;52.104;4.268;2023-12-07T14:03:02;26.00;;;15.00;;
76423;SDS011;65257;52.104;4.268;2023-12-07T14:05:29;21.52;;;14.85;;
76423;SDS011;65257;52.104;4.268;2023-12-07T14:07:55;20.27;;;11.55;;
76423;SDS011;65257;52.104;4.268;2023-12-07T14:10:21;27.95;;;14.60;;
76423;SDS011;65257;52.104;4.268;2023-12-07T14:12:47;21.95;;;11.48;;
76423;SDS011;65257;52.104;4.268;2023-12-07T14:15:12;23.60;;;14.88;;
76423;SDS011;65257;52.104;4.268;2023-12-07T14:17:38;26.02;;;16.55;;
76423;SDS011;65257;52.104;4.268;2023-12-07T14:20:07;26.60;;;15.23;;
76423;SDS011;65257;52.104;4.268;2023-12-07T14:22:33;18.27;;;9.43;;
76423;SDS011;65257;52.104;4.268;2023-12-07T14:25:00;20.05;;;12.38;;
76423;SDS011;65257;52.104;4.268;2023-12-07T14:27:26;22.08;;;12.05;;